createdAt,value
2023-05-13T00:00:23.404Z,98837.16
2023-05-13T00:03:26.812Z,98839.94
2023-05-13T00:06:29.710Z,98837.25
2023-05-13T00:09:32.866Z,98840.06
2023-05-13T00:12:35.418Z,98831.94
2023-05-13T00:15:38.325Z,98832.97
2023-05-13T00:18:41.102Z,98842.66
2023-05-13T00:21:44.098Z,98839.28
2023-05-13T00:24:46.695Z,98834.87
2023-05-13T00:27:49.632Z,98840.44
2023-05-13T00:30:52.207Z,98844.06
2023-05-13T00:33:55.462Z,98842.91
2023-05-13T00:36:58.128Z,98841.16
2023-05-13T00:40:00.963Z,98851.06
2023-05-13T00:43:03.601Z,98848.28
2023-05-13T00:46:06.692Z,98849.31
2023-05-13T00:49:09.527Z,98851.97
2023-05-13T00:52:12.690Z,98855.59
2023-05-13T00:55:15.486Z,98853.78
2023-05-13T00:58:18.349Z,98858.50
2023-05-13T01:01:31.238Z,98861.41
2023-05-13T01:04:43.189Z,98864.87
2023-05-13T01:08:10.480Z,98866.66
2023-05-13T01:11:21.978Z,98866.81
2023-05-13T01:14:29.088Z,98866.91
2023-05-13T01:17:48.050Z,98866.06
2023-05-13T01:20:50.700Z,98862.72
2023-05-13T01:23:54.204Z,98866.31
2023-05-13T01:26:57.058Z,98861.09
2023-05-13T01:29:59.907Z,98865.41
2023-05-13T01:33:03.635Z,98869.00
2023-05-13T01:36:07.817Z,98863.84
2023-05-13T01:39:12.225Z,98847.97
2023-05-13T01:42:15.937Z,98867.44
2023-05-13T01:45:18.876Z,98866.47
2023-05-13T01:48:21.722Z,98867.41
2023-05-13T01:51:24.647Z,98849.00
2023-05-13T01:54:27.667Z,98869.16
2023-05-13T01:57:30.661Z,98862.19
2023-05-13T02:00:33.579Z,98872.87
2023-05-13T02:03:37.746Z,98866.56
2023-05-13T02:06:40.489Z,98872.09
2023-05-13T02:09:43.961Z,98868.47
2023-05-13T02:12:46.511Z,98870.34
2023-05-13T02:15:49.334Z,98859.59
2023-05-13T02:18:51.961Z,98870.06
2023-05-13T02:21:54.920Z,98865.66
2023-05-13T02:24:58.145Z,98870.31
2023-05-13T02:28:00.760Z,98862.47
2023-05-13T02:31:03.617Z,98868.72
2023-05-13T02:34:06.147Z,98867.81
2023-05-13T02:37:09.133Z,98861.75
2023-05-13T02:40:13.426Z,98867.91
2023-05-13T02:43:16.306Z,98860.72
2023-05-13T02:46:19.999Z,98860.78
2023-05-13T02:49:23.345Z,98867.88
2023-05-13T02:52:25.850Z,98863.34
2023-05-13T02:55:28.856Z,98861.78
2023-05-13T02:58:34.716Z,98862.56
2023-05-13T03:01:37.556Z,98858.53
2023-05-13T03:04:41.350Z,98863.94
2023-05-13T03:07:44.400Z,98837.31
2023-05-13T03:10:46.783Z,98872.69
2023-05-13T03:13:50.352Z,98877.22
2023-05-13T03:16:53.009Z,98868.31
2023-05-13T03:19:56.363Z,98864.66
2023-05-13T03:22:59.124Z,98865.47
2023-05-13T03:26:02.262Z,98873.50
2023-05-13T03:29:06.024Z,98876.81
2023-05-13T03:32:10.235Z,98878.78
2023-05-13T03:35:13.052Z,98875.03
2023-05-13T03:38:16.069Z,98880.47
2023-05-13T03:41:19.076Z,98887.66
2023-05-13T03:44:22.424Z,98889.59
2023-05-13T03:47:25.438Z,98892.22
2023-05-13T03:50:28.998Z,98876.56
2023-05-13T03:53:31.716Z,98897.97
2023-05-13T03:56:34.788Z,98903.41
2023-05-13T03:59:37.472Z,98904.13
2023-05-13T04:02:41.104Z,98884.81
2023-05-13T04:05:46.637Z,98913.13
2023-05-13T04:08:50.078Z,98910.50
2023-05-13T04:11:53.081Z,98908.63
2023-05-13T04:14:55.728Z,98917.66
2023-05-13T04:18:00.100Z,98919.28
2023-05-13T04:21:07.751Z,98916.63
2023-05-13T04:24:10.509Z,98917.50
2023-05-13T04:27:12.950Z,98917.44
2023-05-13T04:30:16.103Z,98933.66
2023-05-13T04:33:19.170Z,98889.47
2023-05-13T04:36:23.086Z,98924.69
2023-05-13T04:39:25.921Z,98921.16
2023-05-13T04:42:29.377Z,98935.28
2023-05-13T04:45:31.949Z,98940.56
2023-05-13T04:48:35.861Z,98927.22
2023-05-13T04:51:39.071Z,98945.91
2023-05-13T04:54:43.177Z,98945.66
2023-05-13T04:57:46.152Z,98942.81
2023-05-13T05:00:49.295Z,98949.06
2023-05-13T05:03:52.438Z,98957.06
2023-05-13T05:06:55.600Z,98933.13
2023-05-13T05:09:58.252Z,98953.47
2023-05-13T05:13:01.549Z,98960.72
2023-05-13T05:16:05.275Z,98966.06
2023-05-13T05:19:08.774Z,98962.66
2023-05-13T05:22:12.754Z,98961.84
2023-05-13T05:25:15.896Z,98970.88
2023-05-13T05:28:18.711Z,98963.66
2023-05-13T05:31:21.869Z,98970.03
2023-05-13T05:34:24.721Z,98966.53
2023-05-13T05:37:29.324Z,98974.63
2023-05-13T05:40:33.198Z,98978.97
2023-05-13T05:43:36.259Z,98974.44
2023-05-13T05:46:38.869Z,98960.16
2023-05-13T05:49:42.873Z,98976.25
2023-05-13T05:52:45.494Z,98973.38
2023-05-13T05:55:49.682Z,98967.94
2023-05-13T05:58:53.908Z,98972.37
2023-05-13T06:01:56.870Z,98965.25
2023-05-13T06:04:59.792Z,98972.25
2023-05-13T06:08:02.544Z,98974.09
2023-05-13T06:11:05.870Z,98979.44
2023-05-13T06:14:08.474Z,98982.13
2023-05-13T06:17:14.671Z,98982.28
2023-05-13T06:20:17.132Z,98992.97
2023-05-13T06:23:20.040Z,98996.53
2023-05-13T06:26:22.620Z,98996.44
2023-05-13T06:29:25.395Z,98987.59
2023-05-13T06:32:28.788Z,98988.56
2023-05-13T06:35:31.804Z,98995.81
2023-05-13T06:38:34.839Z,98990.34
2023-05-13T06:41:41.208Z,98993.25
2023-05-13T06:44:44.011Z,98997.75
2023-05-13T06:47:46.811Z,98997.00
2023-05-13T06:50:49.851Z,98998.78
2023-05-13T06:53:53.391Z,99000.47
2023-05-13T06:56:56.102Z,99003.00
2023-05-13T06:59:59.205Z,99008.38
2023-05-13T07:03:03.687Z,99010.16
2023-05-13T07:06:06.614Z,99008.22
2023-05-13T07:09:09.807Z,99007.25
2023-05-13T07:12:12.618Z,99003.63
2023-05-13T07:15:15.147Z,99007.19
2023-05-13T07:18:18.069Z,98985.09
2023-05-13T07:21:21.068Z,98996.44
2023-05-13T07:24:23.863Z,99001.03
2023-05-13T07:27:26.389Z,99004.28
2023-05-13T07:30:29.243Z,99000.81
2023-05-13T07:33:31.702Z,98990.13
2023-05-13T07:36:34.625Z,99002.78
2023-05-13T07:39:37.109Z,99009.78
2023-05-13T07:42:40.391Z,99005.75
2023-05-13T07:45:42.915Z,99005.59
2023-05-13T07:48:45.943Z,99009.31
2023-05-13T07:51:48.446Z,99004.97
2023-05-13T07:54:51.216Z,99011.22
2023-05-13T07:57:53.740Z,99019.44
2023-05-13T08:00:56.517Z,99019.44
2023-05-13T08:03:59.472Z,99027.44
2023-05-13T08:07:02.163Z,99026.56
2023-05-13T08:10:05.908Z,99024.75
2023-05-13T08:13:08.538Z,99028.13
2023-05-13T08:16:11.491Z,99033.56
2023-05-13T08:19:15.010Z,99037.12
2023-05-13T08:22:17.805Z,99041.03
2023-05-13T08:25:20.605Z,99042.50
2023-05-13T08:28:23.621Z,99039.88
2023-05-13T08:31:26.859Z,99029.75
2023-05-13T08:34:29.793Z,99038.06
2023-05-13T08:37:32.744Z,99043.25
2023-05-13T08:40:35.571Z,99044.62
2023-05-13T08:43:38.905Z,99039.03
2023-05-13T08:46:45.531Z,99045.78
2023-05-13T08:49:48.564Z,99054.41
2023-05-13T08:52:54.777Z,99052.91
2023-05-13T08:55:57.914Z,99051.06
2023-05-13T08:59:00.742Z,99048.31
2023-05-13T09:02:05.162Z,99050.59
2023-05-13T09:05:09.309Z,99043.06
2023-05-13T09:08:12.408Z,99046.41
2023-05-13T09:11:15.932Z,99045.34
2023-05-13T09:14:19.503Z,99051.47
2023-05-13T09:17:22.335Z,99048.69
2023-05-13T09:20:27.672Z,99045.31
2023-05-13T09:23:31.217Z,99046.09
2023-05-13T09:26:34.135Z,99052.72
2023-05-13T09:29:37.946Z,99045.22
2023-05-13T09:32:42.277Z,99053.34
2023-05-13T09:35:54.108Z,99056.06
2023-05-13T09:38:56.813Z,99050.19
2023-05-13T09:42:04.322Z,99035.44
2023-05-13T09:45:08.623Z,99052.62
2023-05-13T09:48:11.745Z,99054.06
2023-05-13T09:51:16.142Z,99063.13
2023-05-13T09:54:18.925Z,99060.34
2023-05-13T09:57:21.386Z,99064.19
2023-05-13T10:00:32.073Z,99064.31
2023-05-13T10:03:35.699Z,99066.91
2023-05-13T10:06:39.106Z,99062.72
2023-05-13T10:09:43.616Z,99055.37
2023-05-13T10:12:47.083Z,99059.50
2023-05-13T10:15:51.550Z,99056.56
2023-05-13T10:18:54.328Z,99056.91
2023-05-13T10:21:57.653Z,99053.50
2023-05-13T10:25:01.965Z,99051.44
2023-05-13T10:28:05.327Z,99042.75
2023-05-13T10:31:07.836Z,99035.63
2023-05-13T10:34:11.195Z,99043.34
2023-05-13T10:37:31.666Z,99048.37
2023-05-13T10:41:05.739Z,99053.12
2023-05-13T10:44:09.810Z,99057.69
2023-05-13T10:47:13.288Z,99059.72
2023-05-13T10:50:25.584Z,99062.81
2023-05-13T10:53:30.269Z,99058.44
2023-05-13T10:56:32.805Z,99059.84
2023-05-13T10:59:37.190Z,99057.75
2023-05-13T11:02:39.792Z,99042.88
2023-05-13T11:05:58.662Z,99068.97
2023-05-13T11:09:01.434Z,99066.03
2023-05-13T11:12:04.997Z,99059.91
2023-05-13T11:15:22.042Z,99042.34
2023-05-13T11:18:30.393Z,99035.31
2023-05-13T11:21:35.655Z,99047.75
2023-05-13T11:24:38.921Z,99059.25
2023-05-13T11:27:42.550Z,99055.53
2023-05-13T11:30:55.864Z,99064.66
2023-05-13T11:34:09.625Z,99056.56
2023-05-13T11:37:12.621Z,99067.41
2023-05-13T11:40:41.129Z,99055.94
2023-05-13T11:43:45.266Z,99061.03
2023-05-13T11:46:51.649Z,99058.22
2023-05-13T11:49:55.860Z,99058.66
2023-05-13T11:53:00.148Z,99061.69
2023-05-13T11:56:13.094Z,99057.94
2023-05-13T11:59:15.754Z,99066.91
2023-05-13T12:02:37.457Z,99070.22
2023-05-13T12:05:40.709Z,99070.09
2023-05-13T12:08:45.422Z,99079.13
2023-05-13T12:11:48.430Z,99072.84
2023-05-13T12:14:51.088Z,99074.03
2023-05-13T12:17:54.706Z,99070.09
2023-05-13T12:20:57.713Z,99065.72
2023-05-13T12:24:00.601Z,99066.19
2023-05-13T12:27:10.001Z,99052.75
2023-05-13T12:30:18.143Z,99056.87
2023-05-13T12:33:24.700Z,99048.63
2023-05-13T12:36:36.364Z,99032.69
2023-05-13T12:39:41.979Z,99064.91
2023-05-13T12:42:45.669Z,99071.06
2023-05-13T12:45:53.888Z,99078.00
2023-05-13T12:48:58.537Z,99072.88
2023-05-13T12:52:04.805Z,99068.00
2023-05-13T12:55:08.035Z,99069.25
2023-05-13T12:58:14.088Z,99066.62
2023-05-13T13:01:17.627Z,99067.84
2023-05-13T13:04:20.366Z,99040.87
2023-05-13T13:07:23.057Z,99062.56
2023-05-13T13:10:25.630Z,99062.31
2023-05-13T13:13:28.472Z,99061.50
2023-05-13T13:16:31.069Z,99069.31
2023-05-13T13:19:34.014Z,99059.75
2023-05-13T13:22:39.525Z,99061.34
2023-05-13T13:25:42.452Z,99049.16
2023-05-13T13:28:44.945Z,99059.66
2023-05-13T13:31:47.846Z,99049.94
2023-05-13T13:34:50.829Z,99043.50
2023-05-13T13:37:54.507Z,99048.56
2023-05-13T13:40:57.017Z,99051.06
2023-05-13T13:43:59.988Z,99055.19
2023-05-13T13:47:02.516Z,99054.69
2023-05-13T13:50:06.390Z,99054.75
2023-05-13T13:53:09.331Z,99055.03
2023-05-13T13:56:12.116Z,99046.59
2023-05-13T13:59:14.728Z,99038.56
2023-05-13T14:02:17.726Z,99060.47
2023-05-13T14:05:20.711Z,99044.81
2023-05-13T14:08:23.416Z,99058.75
2023-05-13T14:11:26.389Z,99052.88
2023-05-13T14:14:29.146Z,99058.50
2023-05-13T14:17:32.734Z,99059.09
2023-05-13T14:20:36.046Z,99050.22
2023-05-13T14:23:41.697Z,99029.75
2023-05-13T14:26:45.416Z,99052.19
2023-05-13T14:29:48.772Z,99051.38
2023-05-13T14:32:51.402Z,99051.59
2023-05-13T14:35:54.205Z,99053.16
2023-05-13T14:38:56.743Z,99015.44
2023-05-13T14:41:59.494Z,99039.38
2023-05-13T14:45:02.029Z,99029.88
2023-05-13T14:48:05.135Z,99036.53
2023-05-13T14:51:07.709Z,99032.34
2023-05-13T14:54:10.682Z,99026.25
2023-05-13T14:57:13.207Z,99011.22
2023-05-13T15:00:16.451Z,99013.66
2023-05-13T15:03:19.000Z,99006.47
2023-05-13T15:06:22.600Z,99014.53
2023-05-13T15:09:25.124Z,99024.44
2023-05-13T15:12:27.921Z,99020.72
2023-05-13T15:15:30.701Z,99017.66
2023-05-13T15:18:34.069Z,99021.88
2023-05-13T15:21:36.825Z,99024.19
2023-05-13T15:24:40.775Z,99020.09
2023-05-13T15:27:44.729Z,99026.53
2023-05-13T15:30:47.724Z,99031.16
2023-05-13T15:33:50.276Z,99022.53
2023-05-13T15:36:53.172Z,99022.31
2023-05-13T15:39:55.676Z,99002.19
2023-05-13T15:42:58.349Z,99022.25
2023-05-13T15:46:01.500Z,99028.16
2023-05-13T15:49:04.278Z,99031.97
2023-05-13T15:52:07.297Z,99003.94
2023-05-13T15:55:10.236Z,99025.00
2023-05-13T15:58:12.693Z,99030.34
2023-05-13T16:01:15.445Z,99023.34
2023-05-13T16:04:18.380Z,99023.44
2023-05-13T16:07:20.965Z,99021.56
2023-05-13T16:10:24.098Z,99023.41
2023-05-13T16:13:26.857Z,99000.63
2023-05-13T16:16:29.746Z,99023.44
2023-05-13T16:19:32.377Z,99023.50
2023-05-13T16:22:38.054Z,99027.16
2023-05-13T16:25:41.901Z,99021.94
2023-05-13T16:28:44.670Z,99022.75
2023-05-13T16:31:47.528Z,99028.34
2023-05-13T16:34:50.979Z,99030.41
2023-05-13T16:37:53.846Z,99027.81
2023-05-13T16:40:56.637Z,99019.78
2023-05-13T16:43:59.748Z,99020.69
2023-05-13T16:47:02.780Z,99020.22
2023-05-13T16:50:06.068Z,99024.03
2023-05-13T16:53:09.897Z,99023.50
2023-05-13T16:56:12.426Z,99015.34
2023-05-13T16:59:26.241Z,99021.94
2023-05-13T17:02:28.816Z,99024.16
2023-05-13T17:05:32.005Z,99024.78
2023-05-13T17:08:37.440Z,99008.00
2023-05-13T17:11:40.328Z,99010.31
2023-05-13T17:14:43.306Z,98981.34
2023-05-13T17:17:46.515Z,99008.19
2023-05-13T17:20:49.161Z,99001.28
2023-05-13T17:23:52.062Z,99004.03
2023-05-13T17:26:54.693Z,98998.78
2023-05-13T17:29:57.509Z,99009.56
2023-05-13T17:33:00.200Z,99012.56
2023-05-13T17:36:03.293Z,99009.03
2023-05-13T17:39:05.874Z,99014.56
2023-05-13T17:42:08.730Z,99021.12
2023-05-13T17:45:11.487Z,99008.69
2023-05-13T17:48:14.625Z,98995.03
2023-05-13T17:51:17.342Z,98996.50
2023-05-13T17:54:20.144Z,98988.59
2023-05-13T17:57:22.664Z,98981.03
2023-05-13T18:00:26.176Z,98982.16
2023-05-13T18:03:28.952Z,98977.06
2023-05-13T18:06:31.499Z,98964.87
2023-05-13T18:09:35.958Z,98975.13
2023-05-13T18:12:38.505Z,98965.66
2023-05-13T18:15:41.300Z,98993.84
2023-05-13T18:18:43.963Z,98999.56
2023-05-13T18:21:46.934Z,98992.47
2023-05-13T18:24:49.501Z,98996.22
2023-05-13T18:27:52.454Z,98992.88
2023-05-13T18:30:54.890Z,98997.69
2023-05-13T18:33:57.669Z,98987.37
2023-05-13T18:37:00.422Z,98982.13
2023-05-13T18:40:03.757Z,98978.03
2023-05-13T18:43:07.156Z,98980.91
2023-05-13T18:46:10.205Z,98988.25
2023-05-13T18:49:12.706Z,98996.38
2023-05-13T18:52:15.492Z,99009.09
2023-05-13T18:55:18.521Z,99026.06
2023-05-13T18:58:21.563Z,99029.62
2023-05-13T19:01:24.579Z,99031.44
2023-05-13T19:04:27.658Z,99024.28
2023-05-13T19:07:30.236Z,99023.78
2023-05-13T19:10:39.084Z,99022.03
2023-05-13T19:13:47.270Z,99013.28
2023-05-13T19:16:50.807Z,99020.69
2023-05-13T19:19:53.288Z,99020.81
2023-05-13T19:22:56.271Z,99037.91
2023-05-13T19:25:59.104Z,99023.72
2023-05-13T19:29:02.325Z,99025.53
2023-05-13T19:32:05.136Z,99034.50
2023-05-13T19:35:08.360Z,99041.72
2023-05-13T19:38:10.945Z,99040.87
2023-05-13T19:41:13.887Z,99032.81
2023-05-13T19:44:16.364Z,99037.38
2023-05-13T19:47:19.208Z,99027.72
2023-05-13T19:50:21.937Z,99030.50
2023-05-13T19:53:25.080Z,99036.81
2023-05-13T19:56:27.751Z,99033.28
2023-05-13T19:59:30.699Z,99038.72
2023-05-13T20:02:33.400Z,99031.63
2023-05-13T20:05:36.272Z,99030.75
2023-05-13T20:08:38.887Z,99022.06
2023-05-13T20:11:42.075Z,98990.38
2023-05-13T20:14:49.646Z,99004.63
2023-05-13T20:17:52.751Z,99016.09
2023-05-13T20:20:55.463Z,99011.75
2023-05-13T20:23:58.421Z,99006.62
2023-05-13T20:27:00.901Z,99006.62
2023-05-13T20:30:04.415Z,99013.16
2023-05-13T20:33:07.092Z,99009.59
2023-05-13T20:36:09.960Z,99012.47
2023-05-13T20:39:12.503Z,99006.19
2023-05-13T20:42:15.340Z,99017.87
2023-05-13T20:45:18.031Z,99025.94
2023-05-13T20:48:20.741Z,99020.56
2023-05-13T20:51:23.354Z,99009.81
2023-05-13T20:54:26.125Z,99014.25
2023-05-13T20:57:28.823Z,99019.59
2023-05-13T21:00:31.710Z,99011.53
2023-05-13T21:03:34.318Z,99010.72
2023-05-13T21:06:37.125Z,99001.03
2023-05-13T21:09:40.106Z,98995.78
2023-05-13T21:12:47.555Z,98990.56
2023-05-13T21:15:52.028Z,98995.06
2023-05-13T21:18:55.182Z,99004.94
2023-05-13T21:21:57.884Z,99012.16
2023-05-13T21:25:00.699Z,99017.44
2023-05-13T21:28:03.760Z,99018.37
2023-05-13T21:31:06.906Z,99019.38
2023-05-13T21:34:09.440Z,99006.94
2023-05-13T21:37:12.242Z,98999.94
2023-05-13T21:40:15.081Z,98999.97
2023-05-13T21:43:17.925Z,98987.56
2023-05-13T21:46:20.496Z,98985.88
2023-05-13T21:49:23.881Z,98977.81
2023-05-13T21:52:26.619Z,98960.28
2023-05-13T21:55:33.939Z,98982.22
2023-05-13T21:58:36.429Z,98980.50
2023-05-13T22:01:39.276Z,98973.28
2023-05-13T22:04:42.068Z,98975.13
2023-05-13T22:07:44.584Z,98968.00
2023-05-13T22:10:47.369Z,98965.22
2023-05-13T22:13:49.852Z,98964.28
2023-05-13T22:17:07.592Z,98974.06
2023-05-13T22:20:12.414Z,98964.16
2023-05-13T22:23:15.226Z,98964.94
2023-05-13T22:26:17.657Z,98965.91
2023-05-13T22:29:20.411Z,98955.84
2023-05-13T22:32:23.496Z,98950.56
2023-05-13T22:35:28.831Z,98947.94
2023-05-13T22:38:31.349Z,98942.63
2023-05-13T22:41:34.081Z,98952.59
2023-05-13T22:44:36.593Z,98960.78
2023-05-13T22:47:39.615Z,98963.50
2023-05-13T22:50:42.175Z,98970.81
2023-05-13T22:53:45.099Z,98972.66
2023-05-13T22:56:47.617Z,98956.75
2023-05-13T22:59:50.590Z,98945.12
2023-05-13T23:02:53.164Z,98950.56
2023-05-13T23:05:56.656Z,98947.94
2023-05-13T23:08:59.153Z,98946.00
2023-05-13T23:12:01.990Z,98954.09
2023-05-13T23:15:05.177Z,98951.28
2023-05-13T23:18:08.023Z,98917.72
2023-05-13T23:21:10.544Z,98941.53
2023-05-13T23:24:13.298Z,98932.63
2023-05-13T23:27:15.805Z,98931.75
2023-05-13T23:30:18.585Z,98913.25
2023-05-13T23:33:21.104Z,98934.31
2023-05-13T23:36:23.906Z,98935.19
2023-05-13T23:39:26.443Z,98927.13
2023-05-13T23:42:29.323Z,98930.75
2023-05-13T23:45:31.936Z,98914.84
2023-05-13T23:48:34.754Z,98941.47
2023-05-13T23:51:37.921Z,98940.56
2023-05-13T23:54:40.650Z,98932.41
2023-05-13T23:57:43.141Z,98921.69
